Time;durP1;ratioP1;P1;durP2;ratioP2;P2;SDS_P1;SDS_P2;PMS_P1;PMS_P2;Temp;Humidity;BMP_temperature;BMP_pressure;BME280_temperature;BME280_humidity;BME280_pressure;Samples;Min_cycle;Max_cycle;Signal;HPM_P1;HPM_P2
2021/07/12 00:00:20;;;;;;;9.48;8.50;;;;;;;;;;3584506;40;20052;-61
2021/07/12 00:02:47;;;;;;;9.88;8.43;;;;;;;;;;3581424;40;20037;-62
2021/07/12 00:05:13;;;;;;;10.23;8.65;;;;;;;;;;3583421;40;20137;-62
2021/07/12 00:07:39;;;;;;;9.93;8.65;;;;;;;;;;3582224;40;20368;-59
2021/07/12 00:10:08;;;;;;;11.68;8.98;;;;;;;;;;3582081;40;20493;-61
2021/07/12 00:12:34;;;;;;;12.50;9.93;;;;;;;;;;3582486;40;20041;-60
2021/07/12 00:15:00;;;;;;;11.13;9.38;;;;;;;;;;3585074;40;20024;-59
2021/07/12 00:17:25;;;;;;;10.98;8.82;;;;;;;;;;3583861;40;20033;-61
2021/07/12 00:19:51;;;;;;;11.35;8.30;;;;;;;;;;3576580;40;20036;-60
2021/07/12 00:22:16;;;;;;;11.80;8.68;;;;;;;;;;3581611;40;20021;-60
2021/07/12 00:24:42;;;;;;;9.00;8.10;;;;;;;;;;3583838;40;20156;-60
2021/07/12 00:27:07;;;;;;;11.05;8.50;;;;;;;;;;3576289;40;20495;-59
2021/07/12 00:29:33;;;;;;;14.73;8.18;;;;;;;;;;3583794;40;20045;-60
2021/07/12 00:31:58;;;;;;;10.45;9.35;;;;;;;;;;3582774;40;20052;-60
2021/07/12 00:34:24;;;;;;;14.80;9.43;;;;;;;;;;3584467;40;20056;-60
2021/07/12 00:36:49;;;;;;;13.88;10.15;;;;;;;;;;3585483;40;20085;-60
2021/07/12 00:39:15;;;;;;;12.63;9.95;;;;;;;;;;3583202;40;20494;-60
2021/07/12 00:41:40;;;;;;;15.13;10.07;;;;;;;;;;3581811;40;20288;-60
2021/07/12 00:44:06;;;;;;;13.90;8.98;;;;;;;;;;3580572;40;20027;-60
2021/07/12 00:46:32;;;;;;;11.38;9.63;;;;;;;;;;3583962;40;20032;-60
2021/07/12 00:48:58;;;;;;;10.85;9.77;;;;;;;;;;3584337;40;20033;-60
2021/07/12 00:51:24;;;;;;;12.80;10.52;;;;;;;;;;3585662;40;20044;-60
2021/07/12 00:53:50;;;;;;;14.75;9.48;;;;;;;;;;3576163;40;20040;-60
2021/07/12 00:56:16;;;;;;;12.43;9.80;;;;;;;;;;3581043;40;20064;-60
2021/07/12 00:58:42;;;;;;;9.98;8.77;;;;;;;;;;3582630;40;20370;-60
2021/07/12 01:01:07;;;;;;;12.82;9.88;;;;;;;;;;3581283;40;20052;-60
2021/07/12 01:03:33;;;;;;;13.02;9.80;;;;;;;;;;3582792;40;20086;-60
2021/07/12 01:06:00;;;;;;;10.48;9.38;;;;;;;;;;3581804;40;20060;-60
2021/07/12 01:08:25;;;;;;;15.13;9.98;;;;;;;;;;3582571;40;20085;-60
2021/07/12 01:11:09;;;;;;;11.07;9.95;;;;;;;;;;3582884;40;20112;-59
2021/07/12 01:13:37;;;;;;;11.25;10.05;;;;;;;;;;3583591;40;20044;-60
2021/07/12 01:16:27;;;;;;;12.30;11.00;;;;;;;;;;3582116;40;20118;-61
2021/07/12 01:19:07;;;;;;;15.60;11.35;;;;;;;;;;3584350;40;20044;-60
2021/07/12 01:21:57;;;;;;;12.03;10.83;;;;;;;;;;3583452;40;20368;-60
2021/07/12 01:24:48;;;;;;;11.23;10.13;;;;;;;;;;3581649;40;20037;-60
2021/07/12 01:27:52;;;;;;;12.82;11.15;;;;;;;;;;3582269;40;20174;-60
2021/07/12 01:30:56;;;;;;;11.88;10.68;;;;;;;;;;3581947;40;20044;-60
2021/07/12 01:33:41;;;;;;;12.10;10.25;;;;;;;;;;3583831;40;20037;-60
2021/07/12 01:36:33;;;;;;;12.27;11.02;;;;;;;;;;3580789;40;20029;-60
2021/07/12 01:39:03;;;;;;;12.45;11.15;;;;;;;;;;3580602;40;20091;-60
2021/07/12 01:41:33;;;;;;;;;;;;;;;;;;3585309;40;20040;-60
2021/07/12 01:44:11;;;;;;;12.25;10.07;;;;;;;;;;3580664;40;19972;-59
2021/07/12 01:46:58;;;;;;;20.10;10.98;;;;;;;;;;3582428;40;20037;-60
2021/07/12 01:49:34;;;;;;;13.10;11.80;;;;;;;;;;3581571;40;20037;-60
2021/07/12 01:52:06;;;;;;;15.23;11.75;;;;;;;;;;3583206;40;20513;-60
2021/07/12 01:54:43;;;;;;;13.25;11.77;;;;;;;;;;3581347;40;20032;-61
2021/07/12 01:57:20;;;;;;;12.85;11.30;;;;;;;;;;3581559;40;20043;-60
2021/07/12 02:00:03;;;;;;;13.27;11.88;;;;;;;;;;3581695;40;20072;-60
2021/07/12 02:02:31;;;;;;;12.98;11.75;;;;;;;;;;3581166;40;20056;-60
2021/07/12 02:04:59;;;;;;;12.57;11.25;;;;;;;;;;3582222;40;20470;-60
2021/07/12 02:07:27;;;;;;;13.65;11.40;;;;;;;;;;3581684;40;20076;-60
2021/07/12 02:09:54;;;;;;;12.38;11.18;;;;;;;;;;3582502;40;20033;-60
2021/07/12 02:12:20;;;;;;;13.90;10.70;;;;;;;;;;3583714;40;20070;-61
2021/07/12 02:14:46;;;;;;;12.35;11.05;;;;;;;;;;3583739;40;20045;-60
2021/07/12 02:17:14;;;;;;;12.18;11.00;;;;;;;;;;3584832;40;20035;-60
2021/07/12 02:19:41;;;;;;;15.55;11.85;;;;;;;;;;3584991;40;20044;-60
2021/07/12 02:22:07;;;;;;;13.77;11.57;;;;;;;;;;3582263;40;20397;-60
2021/07/12 02:24:33;;;;;;;15.35;11.85;;;;;;;;;;3584399;40;20372;-60
2021/07/12 02:27:00;;;;;;;17.08;10.40;;;;;;;;;;3583206;40;20442;-60
2021/07/12 02:29:26;;;;;;;13.38;10.90;;;;;;;;;;3584629;40;20028;-60
2021/07/12 02:31:52;;;;;;;10.38;9.23;;;;;;;;;;3582668;40;20029;-60
2021/07/12 02:34:18;;;;;;;12.73;11.32;;;;;;;;;;3584628;40;20640;-60
2021/07/12 02:36:46;;;;;;;12.23;10.82;;;;;;;;;;3584599;40;20068;-60
2021/07/12 02:39:13;;;;;;;12.13;10.52;;;;;;;;;;3584928;40;20037;-60
2021/07/12 02:41:39;;;;;;;14.77;9.93;;;;;;;;;;3581787;40;20044;-60
2021/07/12 02:44:08;;;;;;;12.50;10.38;;;;;;;;;;3583383;40;20048;-60
2021/07/12 02:46:34;;;;;;;11.63;10.52;;;;;;;;;;3584485;40;20045;-60
2021/07/12 02:49:01;;;;;;;10.75;9.70;;;;;;;;;;3583105;40;20115;-60
2021/07/12 02:52:01;;;;;;;12.80;10.90;;;;;;;;;;3583035;40;20064;-60
2021/07/12 02:54:42;;;;;;;14.85;10.50;;;;;;;;;;3567863;40;20044;-59
2021/07/12 02:57:08;;;;;;;14.13;10.60;;;;;;;;;;3582630;40;20036;-60
2021/07/12 02:59:33;;;;;;;11.50;10.18;;;;;;;;;;3582848;40;20054;-59
2021/07/12 03:01:59;;;;;;;10.68;9.52;;;;;;;;;;3584928;40;20040;-60
2021/07/12 03:04:24;;;;;;;11.20;10.10;;;;;;;;;;3583078;40;20047;-60
2021/07/12 03:06:52;;;;;;;10.43;9.43;;;;;;;;;;3584487;40;20033;-59
2021/07/12 03:09:29;;;;;;;11.77;10.13;;;;;;;;;;3583901;40;20114;-60
2021/07/12 03:12:06;;;;;;;12.23;10.80;;;;;;;;;;3585304;40;20041;-59
2021/07/12 03:14:45;;;;;;;11.95;9.82;;;;;;;;;;3581559;40;20101;-60
2021/07/12 03:17:14;;;;;;;11.27;10.15;;;;;;;;;;3580648;40;20081;-59
2021/07/12 03:19:41;;;;;;;11.77;10.57;;;;;;;;;;3584520;40;20056;-59
2021/07/12 03:22:10;;;;;;;11.73;10.52;;;;;;;;;;3585289;40;20040;-60
2021/07/12 03:24:38;;;;;;;13.02;11.05;;;;;;;;;;3584636;40;20131;-60
2021/07/12 03:27:08;;;;;;;12.95;11.68;;;;;;;;;;3580985;40;20151;-60
2021/07/12 03:29:37;;;;;;;12.65;10.85;;;;;;;;;;3583142;40;20052;-60
2021/07/12 03:32:04;;;;;;;12.05;9.88;;;;;;;;;;3584237;40;20311;-59
2021/07/12 03:34:31;;;;;;;11.32;10.18;;;;;;;;;;3584179;40;20085;-60
2021/07/12 03:37:00;;;;;;;18.60;11.27;;;;;;;;;;3582350;40;20049;-60
2021/07/12 03:39:28;;;;;;;11.95;10.73;;;;;;;;;;3581906;40;20069;-60
2021/07/12 03:41:56;;;;;;;12.75;11.23;;;;;;;;;;3583654;40;20055;-60
2021/07/12 03:44:22;;;;;;;12.82;10.57;;;;;;;;;;3585543;40;20041;-60
2021/07/12 03:46:47;;;;;;;12.60;11.23;;;;;;;;;;3584236;40;20028;-60
2021/07/12 03:49:16;;;;;;;11.23;10.13;;;;;;;;;;3585072;40;20045;-60
2021/07/12 03:51:42;;;;;;;12.38;10.65;;;;;;;;;;3582262;40;20048;-60
2021/07/12 03:54:08;;;;;;;12.93;9.50;;;;;;;;;;3586026;40;20033;-60
2021/07/12 03:56:34;;;;;;;11.60;10.48;;;;;;;;;;3584843;40;20298;-60
2021/07/12 03:59:00;;;;;;;14.48;9.98;;;;;;;;;;3584249;40;20132;-60
2021/07/12 04:01:26;;;;;;;13.18;8.95;;;;;;;;;;3583057;40;20049;-60
2021/07/12 04:03:53;;;;;;;13.70;10.15;;;;;;;;;;3584879;40;20362;-60
2021/07/12 04:06:20;;;;;;;9.82;8.82;;;;;;;;;;3585775;40;20032;-60
2021/07/12 04:08:46;;;;;;;14.98;9.23;;;;;;;;;;3585474;40;20036;-60
2021/07/12 04:11:12;;;;;;;12.18;9.25;;;;;;;;;;3582345;40;20126;-60
2021/07/12 04:13:39;;;;;;;16.80;10.60;;;;;;;;;;3583605;40;20129;-60
2021/07/12 04:16:05;;;;;;;16.25;9.95;;;;;;;;;;3583575;40;20040;-60
2021/07/12 04:18:31;;;;;;;11.05;9.85;;;;;;;;;;3583837;40;20055;-60
2021/07/12 04:20:56;;;;;;;11.15;9.95;;;;;;;;;;3574011;40;20056;-60
2021/07/12 04:23:22;;;;;;;11.88;10.65;;;;;;;;;;3582555;40;20040;-60
2021/07/12 04:25:47;;;;;;;10.80;9.75;;;;;;;;;;3584640;40;20043;-60
2021/07/12 04:28:13;;;;;;;13.57;10.52;;;;;;;;;;3583274;40;20869;-60
2021/07/12 04:30:38;;;;;;;12.48;10.82;;;;;;;;;;3582467;40;20059;-60
2021/07/12 04:33:04;;;;;;;10.10;9.20;;;;;;;;;;3584381;40;20036;-60
2021/07/12 04:35:30;;;;;;;15.80;10.52;;;;;;;;;;3584178;40;20114;-60
2021/07/12 04:37:56;;;;;;;11.65;10.50;;;;;;;;;;3582985;40;20059;-60
2021/07/12 04:40:21;;;;;;;13.07;9.68;;;;;;;;;;3583304;40;20376;-60
2021/07/12 04:42:47;;;;;;;11.82;10.05;;;;;;;;;;3583604;40;20033;-60
2021/07/12 04:45:13;;;;;;;11.45;9.25;;;;;;;;;;3581779;40;20036;-60
2021/07/12 04:47:39;;;;;;;10.38;9.38;;;;;;;;;;3584540;40;20052;-60
2021/07/12 04:50:06;;;;;;;12.00;8.85;;;;;;;;;;3582727;40;20040;-60
2021/07/12 04:52:32;;;;;;;11.07;9.63;;;;;;;;;;3581237;40;20044;-60
2021/07/12 04:54:57;;;;;;;11.05;8.85;;;;;;;;;;3581764;40;20037;-61
2021/07/12 04:57:23;;;;;;;10.70;8.60;;;;;;;;;;3583985;40;20043;-60
2021/07/12 04:59:48;;;;;;;11.05;9.20;;;;;;;;;;3582422;40;20067;-61
2021/07/12 05:02:14;;;;;;;10.55;9.43;;;;;;;;;;3581749;40;20036;-61
2021/07/12 05:04:41;;;;;;;10.68;8.50;;;;;;;;;;3582150;40;20532;-61
2021/07/12 05:07:06;;;;;;;15.10;8.05;;;;;;;;;;3583189;40;20044;-61
2021/07/12 05:09:32;;;;;;;10.90;8.95;;;;;;;;;;3584325;40;20036;-61
2021/07/12 05:11:58;;;;;;;9.52;8.52;;;;;;;;;;3584314;40;20029;-61
2021/07/12 05:14:26;;;;;;;12.38;7.82;;;;;;;;;;3581329;40;20675;-60
2021/07/12 05:16:53;;;;;;;9.68;8.68;;;;;;;;;;3582699;40;20064;-60
2021/07/12 05:19:18;;;;;;;9.98;8.20;;;;;;;;;;3582611;40;20043;-61
2021/07/12 05:21:45;;;;;;;10.52;7.93;;;;;;;;;;3585082;40;20330;-60
2021/07/12 05:24:10;;;;;;;10.52;8.02;;;;;;;;;;3583745;40;20300;-60
2021/07/12 05:26:36;;;;;;;9.07;7.55;;;;;;;;;;3581680;40;20040;-61
2021/07/12 05:29:01;;;;;;;13.95;6.80;;;;;;;;;;3581711;40;20361;-61
2021/07/12 05:31:27;;;;;;;9.40;7.63;;;;;;;;;;3583922;40;20029;-61
2021/07/12 05:33:52;;;;;;;9.15;7.90;;;;;;;;;;3582329;40;20033;-61
2021/07/12 05:36:18;;;;;;;8.20;7.28;;;;;;;;;;3582632;40;20300;-61
2021/07/12 05:38:43;;;;;;;8.20;7.18;;;;;;;;;;3581703;40;20049;-61
2021/07/12 05:41:09;;;;;;;9.60;7.40;;;;;;;;;;3582855;40;20053;-61
2021/07/12 05:43:35;;;;;;;12.70;8.00;;;;;;;;;;3585488;40;20048;-61
2021/07/12 05:46:01;;;;;;;9.10;7.07;;;;;;;;;;3583313;40;20063;-61
2021/07/12 05:48:27;;;;;;;9.32;7.32;;;;;;;;;;3583723;40;20158;-61
2021/07/12 05:50:52;;;;;;;8.15;6.82;;;;;;;;;;3581100;40;20024;-60
2021/07/12 05:53:18;;;;;;;7.85;6.45;;;;;;;;;;3580475;40;20044;-60
2021/07/12 05:55:44;;;;;;;8.30;7.38;;;;;;;;;;3583194;40;20126;-60
2021/07/12 05:58:10;;;;;;;7.82;6.60;;;;;;;;;;3586672;40;20451;-60
2021/07/12 06:00:35;;;;;;;7.68;6.25;;;;;;;;;;3584489;40;20041;-60
2021/07/12 06:03:01;;;;;;;8.65;6.88;;;;;;;;;;3582690;40;20029;-60
2021/07/12 06:05:26;;;;;;;7.47;6.20;;;;;;;;;;3584506;40;20065;-60
2021/07/12 06:07:52;;;;;;;7.95;6.90;;;;;;;;;;3582963;40;20123;-61
2021/07/12 06:10:17;;;;;;;7.97;6.28;;;;;;;;;;3583048;40;20055;-60
2021/07/12 06:12:43;;;;;;;7.22;5.97;;;;;;;;;;3578221;40;20372;-61
2021/07/12 06:15:09;;;;;;;6.70;6.00;;;;;;;;;;3585421;40;20118;-60
2021/07/12 06:17:35;;;;;;;7.47;6.28;;;;;;;;;;3584298;40;20056;-61
2021/07/12 06:20:01;;;;;;;5.93;5.20;;;;;;;;;;3585119;40;20049;-61
2021/07/12 06:22:26;;;;;;;10.18;6.38;;;;;;;;;;3584189;40;20069;-61
2021/07/12 06:24:52;;;;;;;9.70;5.65;;;;;;;;;;3584557;40;20036;-61
2021/07/12 06:27:17;;;;;;;11.02;5.28;;;;;;;;;;3584267;40;20364;-61
2021/07/12 06:29:43;;;;;;;7.15;5.00;;;;;;;;;;3585722;40;20080;-63
2021/07/12 06:32:09;;;;;;;8.55;5.35;;;;;;;;;;3584063;40;20048;-66
2021/07/12 06:34:35;;;;;;;5.65;5.05;;;;;;;;;;3582663;40;20045;-67
2021/07/12 06:37:01;;;;;;;6.60;5.13;;;;;;;;;;3585305;40;20342;-66
2021/07/12 06:39:26;;;;;;;9.60;5.70;;;;;;;;;;3584909;40;20045;-65
2021/07/12 06:41:51;;;;;;;9.68;5.32;;;;;;;;;;3582857;40;20037;-66
2021/07/12 06:44:17;;;;;;;6.85;5.57;;;;;;;;;;3582417;40;20044;-67
2021/07/12 06:46:42;;;;;;;8.82;4.43;;;;;;;;;;3583419;40;20332;-67
2021/07/12 06:49:08;;;;;;;7.57;4.95;;;;;;;;;;3582764;40;20364;-67
2021/07/12 06:51:33;;;;;;;11.00;5.00;;;;;;;;;;3584067;40;20272;-66
2021/07/12 06:54:00;;;;;;;7.13;4.78;;;;;;;;;;3583116;40;20038;-66
2021/07/12 06:56:26;;;;;;;8.00;4.50;;;;;;;;;;3584873;40;20372;-66
2021/07/12 06:58:52;;;;;;;5.95;4.50;;;;;;;;;;3583251;40;20033;-66
2021/07/12 07:01:18;;;;;;;6.70;4.55;;;;;;;;;;3583424;40;20036;-66
2021/07/12 07:03:43;;;;;;;5.63;4.35;;;;;;;;;;3584299;40;20125;-66
2021/07/12 07:06:09;;;;;;;5.38;4.20;;;;;;;;;;3583349;40;20368;-65
2021/07/12 07:08:35;;;;;;;5.38;4.57;;;;;;;;;;3582412;40;20043;-65
2021/07/12 07:11:01;;;;;;;7.10;4.32;;;;;;;;;;3582217;40;20040;-65
2021/07/12 07:13:26;;;;;;;6.85;4.13;;;;;;;;;;3583529;40;20317;-65
2021/07/12 07:15:52;;;;;;;4.72;3.90;;;;;;;;;;3585205;40;20035;-65
2021/07/12 07:18:17;;;;;;;6.45;4.32;;;;;;;;;;3583998;40;20102;-66
2021/07/12 07:20:43;;;;;;;6.30;4.25;;;;;;;;;;3581654;40;20072;-66
2021/07/12 07:23:09;;;;;;;6.25;3.97;;;;;;;;;;3583055;40;20386;-66
2021/07/12 07:25:34;;;;;;;7.90;4.43;;;;;;;;;;3582795;40;20049;-66
2021/07/12 07:28:02;;;;;;;5.07;4.05;;;;;;;;;;3585180;40;20040;-65
2021/07/12 07:30:27;;;;;;;7.55;3.92;;;;;;;;;;3582188;40;20304;-65
2021/07/12 07:32:53;;;;;;;3.53;2.63;;;;;;;;;;3583213;40;20036;-65
2021/07/12 07:35:18;;;;;;;3.95;3.05;;;;;;;;;;3583437;40;20025;-65
2021/07/12 07:37:46;;;;;;;5.88;3.63;;;;;;;;;;3582356;40;20400;-66
2021/07/12 07:40:13;;;;;;;4.43;2.75;;;;;;;;;;3584086;40;20256;-66
2021/07/12 07:42:39;;;;;;;4.63;2.75;;;;;;;;;;3583861;40;20167;-66
2021/07/12 07:45:07;;;;;;;3.97;2.83;;;;;;;;;;3581600;40;20071;-65
2021/07/12 07:47:33;;;;;;;3.80;2.83;;;;;;;;;;3576670;40;20138;-66
2021/07/12 07:49:59;;;;;;;5.25;2.90;;;;;;;;;;3581679;40;20020;-66
2021/07/12 07:52:25;;;;;;;5.70;3.35;;;;;;;;;;3583587;40;20394;-66
2021/07/12 07:54:50;;;;;;;5.60;3.42;;;;;;;;;;3584169;40;20041;-67
2021/07/12 07:57:17;;;;;;;6.07;3.55;;;;;;;;;;3582933;40;20037;-67
2021/07/12 07:59:43;;;;;;;4.88;3.00;;;;;;;;;;3582812;40;20032;-66
2021/07/12 08:02:08;;;;;;;4.45;3.25;;;;;;;;;;3584085;40;20049;-67
2021/07/12 08:04:34;;;;;;;4.85;3.50;;;;;;;;;;3581589;40;20031;-66
2021/07/12 08:06:59;;;;;;;5.43;3.30;;;;;;;;;;3583787;40;20024;-67
2021/07/12 08:09:25;;;;;;;6.95;3.53;;;;;;;;;;3582796;40;20383;-66
2021/07/12 08:11:51;;;;;;;4.43;3.25;;;;;;;;;;3582017;40;20371;-66
2021/07/12 08:14:18;;;;;;;4.35;2.80;;;;;;;;;;3582568;40;20021;-67
2021/07/12 08:16:45;;;;;;;8.35;3.35;;;;;;;;;;3583140;40;20041;-67
2021/07/12 08:19:10;;;;;;;5.70;3.00;;;;;;;;;;3582881;40;20057;-67
2021/07/12 08:21:36;;;;;;;4.93;3.00;;;;;;;;;;3581847;40;20041;-67
2021/07/12 08:24:01;;;;;;;7.43;3.17;;;;;;;;;;3583892;40;20359;-67
2021/07/12 08:26:27;;;;;;;6.47;3.10;;;;;;;;;;3582120;40;20403;-67
2021/07/12 08:28:53;;;;;;;3.80;2.75;;;;;;;;;;3584084;40;20265;-66
2021/07/12 08:31:18;;;;;;;4.95;3.10;;;;;;;;;;3583787;40;20029;-67
2021/07/12 08:33:44;;;;;;;3.65;2.45;;;;;;;;;;3581534;40;20037;-67
2021/07/12 08:36:10;;;;;;;3.92;2.40;;;;;;;;;;3583641;40;20024;-67
2021/07/12 08:38:36;;;;;;;5.13;2.63;;;;;;;;;;3582406;40;20547;-67
2021/07/12 08:41:02;;;;;;;6.20;2.35;;;;;;;;;;3583968;40;20143;-67
2021/07/12 08:43:28;;;;;;;5.40;2.72;;;;;;;;;;3582426;40;20150;-67
2021/07/12 08:45:53;;;;;;;3.75;2.42;;;;;;;;;;3573784;40;20033;-67
2021/07/12 08:48:19;;;;;;;5.03;2.75;;;;;;;;;;3583095;40;20047;-67
2021/07/12 08:50:48;;;;;;;4.10;2.67;;;;;;;;;;3582948;40;20045;-66
2021/07/12 08:53:15;;;;;;;7.57;3.05;;;;;;;;;;3582734;40;20125;-67
2021/07/12 08:55:42;;;;;;;3.67;2.80;;;;;;;;;;3582926;40;20380;-67
2021/07/12 08:58:27;;;;;;;5.75;2.42;;;;;;;;;;3584393;40;20039;-66
2021/07/12 09:01:06;;;;;;;4.60;2.70;;;;;;;;;;3576454;40;20080;-67
2021/07/12 09:03:38;;;;;;;3.75;2.38;;;;;;;;;;3582452;40;20037;-66
2021/07/12 09:06:10;;;;;;;4.35;2.35;;;;;;;;;;3582085;40;20045;-66
2021/07/12 09:08:46;;;;;;;6.35;2.67;;;;;;;;;;3583023;40;20045;-67
2021/07/12 09:11:20;;;;;;;3.60;2.53;;;;;;;;;;3584990;40;20016;-68
2021/07/12 09:13:53;;;;;;;3.70;2.60;;;;;;;;;;3583298;40;20029;-68
2021/07/12 09:16:30;;;;;;;4.13;2.20;;;;;;;;;;3581140;40;20299;-69
2021/07/12 09:19:18;;;;;;;3.50;2.33;;;;;;;;;;3582712;40;20122;-68
2021/07/12 09:22:03;;;;;;;5.95;2.10;;;;;;;;;;3583750;40;20033;-68
2021/07/12 09:24:52;;;;;;;6.05;2.60;;;;;;;;;;3583939;40;20039;-66
2021/07/12 09:27:23;;;;;;;4.85;2.30;;;;;;;;;;3573711;40;20468;-66
2021/07/12 09:29:51;;;;;;;4.10;2.45;;;;;;;;;;3582231;40;20060;-68
2021/07/12 09:32:19;;;;;;;3.70;2.63;;;;;;;;;;3583785;40;20110;-67
2021/07/12 09:34:46;;;;;;;3.85;2.33;;;;;;;;;;3582411;40;20102;-68
2021/07/12 09:37:22;;;;;;;4.57;2.42;;;;;;;;;;3582730;40;20045;-68
2021/07/12 09:39:52;;;;;;;4.55;2.40;;;;;;;;;;3582168;40;20037;-68
2021/07/12 09:42:19;;;;;;;8.80;2.45;;;;;;;;;;3583279;40;20037;-68
2021/07/12 09:44:49;;;;;;;3.55;2.08;;;;;;;;;;3583760;40;20062;-69
2021/07/12 09:47:17;;;;;;;9.18;2.35;;;;;;;;;;3582915;40;20036;-69
2021/07/12 09:49:43;;;;;;;4.82;2.80;;;;;;;;;;3572111;40;20121;-68
2021/07/12 09:52:12;;;;;;;3.95;2.50;;;;;;;;;;3583456;40;20327;-68
2021/07/12 09:54:39;;;;;;;3.25;2.28;;;;;;;;;;3583313;40;20029;-70
2021/07/12 09:57:08;;;;;;;3.67;2.28;;;;;;;;;;3583145;40;20055;-69
2021/07/12 09:59:34;;;;;;;4.28;2.70;;;;;;;;;;3581248;40;20033;-69
2021/07/12 10:02:01;;;;;;;5.32;2.63;;;;;;;;;;3580702;40;20044;-69
2021/07/12 10:04:28;;;;;;;4.60;2.72;;;;;;;;;;3582508;40;20344;-65
2021/07/12 10:06:54;;;;;;;5.93;2.50;;;;;;;;;;3583759;40;20029;-66
2021/07/12 10:09:22;;;;;;;4.43;2.80;;;;;;;;;;3582607;40;20043;-67
2021/07/12 10:11:53;;;;;;;3.42;2.33;;;;;;;;;;3579806;40;20037;-68
2021/07/12 10:14:18;;;;;;;4.38;2.30;;;;;;;;;;3580846;40;20043;-67
2021/07/12 10:16:44;;;;;;;3.53;2.33;;;;;;;;;;3583491;40;20036;-68
2021/07/12 10:19:09;;;;;;;4.38;2.25;;;;;;;;;;3582291;40;20137;-66
2021/07/12 10:21:38;;;;;;;4.47;2.40;;;;;;;;;;3582843;40;20266;-68
2021/07/12 10:24:04;;;;;;;4.15;2.13;;;;;;;;;;3583180;40;20352;-68
2021/07/12 10:26:52;;;;;;;3.10;2.20;;;;;;;;;;3582516;40;20041;-69
2021/07/12 10:29:26;;;;;;;3.65;1.85;;;;;;;;;;3584466;40;20041;-68
2021/07/12 10:32:01;;;;;;;3.08;1.90;;;;;;;;;;3572623;40;20070;-67
2021/07/12 10:34:40;;;;;;;3.33;2.13;;;;;;;;;;3583337;40;20048;-70
2021/07/12 10:37:15;;;;;;;4.07;1.83;;;;;;;;;;3581324;40;20049;-70
2021/07/12 10:39:59;;;;;;;6.05;2.15;;;;;;;;;;3585362;40;20048;-66
2021/07/12 10:42:48;;;;;;;2.78;1.55;;;;;;;;;;3584930;40;20059;-65
2021/07/12 10:45:33;;;;;;;3.53;2.40;;;;;;;;;;3585100;40;20052;-67
2021/07/12 10:48:01;;;;;;;5.47;2.22;;;;;;;;;;3584748;40;20265;-65
2021/07/12 10:50:42;;;;;;;10.07;2.53;;;;;;;;;;3584396;40;20055;-67
2021/07/12 10:53:13;;;;;;;4.35;2.08;;;;;;;;;;3584003;40;20036;-68
2021/07/12 10:55:40;;;;;;;3.20;2.05;;;;;;;;;;3581345;40;20073;-67
2021/07/12 10:58:31;;;;;;;3.42;2.17;;;;;;;;;;3582588;40;20076;-67
2021/07/12 11:01:03;;;;;;;3.53;2.35;;;;;;;;;;3579898;40;20033;-67
2021/07/12 11:03:42;;;;;;;5.07;2.75;;;;;;;;;;3584530;40;20048;-66
2021/07/12 11:06:21;;;;;;;5.65;2.38;;;;;;;;;;3584094;40;20284;-67
2021/07/12 11:08:57;;;;;;;7.32;2.97;;;;;;;;;;3584284;40;20121;-68
2021/07/12 11:11:23;;;;;;;3.75;2.03;;;;;;;;;;3584140;40;20039;-66
2021/07/12 11:13:53;;;;;;;10.90;2.33;;;;;;;;;;3583394;40;20375;-66
2021/07/12 11:16:24;;;;;;;3.65;2.50;;;;;;;;;;3574715;40;20173;-67
2021/07/12 11:18:51;;;;;;;4.00;2.42;;;;;;;;;;3584668;40;20321;-66
2021/07/12 11:21:32;;;;;;;5.03;2.08;;;;;;;;;;3582550;40;20104;-67
2021/07/12 11:24:24;;;;;;;3.38;2.00;;;;;;;;;;3584675;40;20079;-67
2021/07/12 11:26:56;;;;;;;5.97;2.33;;;;;;;;;;3583119;40;20280;-68
2021/07/12 11:29:30;;;;;;;3.60;2.20;;;;;;;;;;3573148;40;20404;-68
2021/07/12 11:32:01;;;;;;;4.07;2.10;;;;;;;;;;3584096;40;20323;-68
2021/07/12 11:34:37;;;;;;;3.97;2.25;;;;;;;;;;3583901;40;20045;-67
2021/07/12 11:37:03;;;;;;;4.32;2.10;;;;;;;;;;3583245;40;20057;-68
2021/07/12 11:39:34;;;;;;;3.53;2.30;;;;;;;;;;3582794;40;20076;-68
2021/07/12 11:42:15;;;;;;;4.10;2.42;;;;;;;;;;3585874;40;20121;-67
2021/07/12 11:44:54;;;;;;;3.17;1.95;;;;;;;;;;3584070;40;20063;-68
2021/07/12 11:47:55;;;;;;;3.13;1.98;;;;;;;;;;3585073;40;20066;-67
2021/07/12 11:50:32;;;;;;;3.25;1.90;;;;;;;;;;3581879;40;20121;-67
2021/07/12 11:53:04;;;;;;;4.13;2.55;;;;;;;;;;3585222;40;20024;-66
2021/07/12 11:55:32;;;;;;;4.80;2.28;;;;;;;;;;3582739;40;20033;-66
2021/07/12 11:58:03;;;;;;;4.75;2.50;;;;;;;;;;3582499;40;20062;-67
2021/07/12 12:00:34;;;;;;;3.55;2.35;;;;;;;;;;3582280;40;20391;-67
2021/07/12 12:03:04;;;;;;;3.50;2.15;;;;;;;;;;3583260;40;20253;-67
2021/07/12 12:05:32;;;;;;;6.00;2.70;;;;;;;;;;3583513;40;20122;-66
2021/07/12 12:07:59;;;;;;;5.43;2.22;;;;;;;;;;3583186;40;20053;-67
2021/07/12 12:10:28;;;;;;;3.75;2.25;;;;;;;;;;3583383;40;20122;-66
2021/07/12 12:12:56;;;;;;;3.20;2.30;;;;;;;;;;3582937;40;20032;-66
2021/07/12 12:15:23;;;;;;;4.13;2.30;;;;;;;;;;3583236;40;20298;-66
2021/07/12 12:18:08;;;;;;;3.78;2.25;;;;;;;;;;3583056;40;20045;-66
2021/07/12 12:20:38;;;;;;;4.65;3.03;;;;;;;;;;3583710;40;20036;-67
2021/07/12 12:23:07;;;;;;;;;;;;;;;;;;3582922;40;20133;-66
2021/07/12 12:25:43;;;;;;;4.75;2.50;;;;;;;;;;3584748;40;19940;-66
2021/07/12 12:28:18;;;;;;;3.38;2.40;;;;;;;;;;3584209;40;20037;-66
2021/07/12 12:30:44;;;;;;;4.50;2.60;;;;;;;;;;3584120;40;20060;-67
2021/07/12 12:33:09;;;;;;;3.97;2.70;;;;;;;;;;3582661;40;20273;-68
2021/07/12 12:35:35;;;;;;;9.98;2.60;;;;;;;;;;3583331;40;20040;-66
2021/07/12 12:38:12;;;;;;;4.25;2.80;;;;;;;;;;3583197;40;20084;-66
2021/07/12 12:40:38;;;;;;;4.63;3.00;;;;;;;;;;3582907;40;20028;-66
2021/07/12 12:43:30;;;;;;;4.53;2.72;;;;;;;;;;3583051;40;20031;-66
2021/07/12 12:45:58;;;;;;;6.55;2.70;;;;;;;;;;3578451;40;20056;-66
2021/07/12 12:48:34;;;;;;;3.95;2.78;;;;;;;;;;3583997;40;20032;-66
2021/07/12 12:51:18;;;;;;;5.47;3.03;;;;;;;;;;3582856;40;20073;-66
2021/07/12 12:53:44;;;;;;;3.85;2.50;;;;;;;;;;3582207;40;20445;-66
2021/07/12 12:56:10;;;;;;;3.70;2.78;;;;;;;;;;3576279;40;20052;-66
2021/07/12 12:58:36;;;;;;;3.47;2.72;;;;;;;;;;3583499;40;20076;-66
2021/07/12 13:01:09;;;;;;;3.50;2.50;;;;;;;;;;3583583;40;20040;-66
2021/07/12 13:03:34;;;;;;;4.97;2.67;;;;;;;;;;3584386;40;20037;-66
2021/07/12 13:06:03;;;;;;;3.58;2.33;;;;;;;;;;3581477;40;20044;-65
2021/07/12 13:08:29;;;;;;;3.40;2.35;;;;;;;;;;3582912;40;20029;-66
2021/07/12 13:11:02;;;;;;;7.05;2.85;;;;;;;;;;3583380;40;20036;-67
2021/07/12 13:13:29;;;;;;;4.25;2.65;;;;;;;;;;3584064;40;20284;-66
2021/07/12 13:16:15;;;;;;;3.70;2.45;;;;;;;;;;3583495;40;20045;-66
2021/07/12 13:18:40;;;;;;;3.35;2.30;;;;;;;;;;3581704;40;20040;-66
2021/07/12 13:21:06;;;;;;;3.15;2.30;;;;;;;;;;3581444;40;20142;-66
2021/07/12 13:23:32;;;;;;;3.72;2.65;;;;;;;;;;3585646;40;20035;-66
2021/07/12 13:26:10;;;;;;;6.43;3.00;;;;;;;;;;3585037;40;20383;-66
2021/07/12 13:28:36;;;;;;;76.75;26.88;;;;;;;;;;3581887;40;20037;-67
2021/07/12 13:31:02;;;;;;;6.82;3.17;;;;;;;;;;3582538;40;20051;-67
2021/07/12 13:33:28;;;;;;;3.90;2.75;;;;;;;;;;3584292;40;20044;-67
2021/07/12 13:35:55;;;;;;;3.30;2.42;;;;;;;;;;3584577;40;20517;-67
2021/07/12 13:38:21;;;;;;;7.18;3.25;;;;;;;;;;3581096;40;20029;-66
2021/07/12 13:40:46;;;;;;;30.63;14.25;;;;;;;;;;3583603;40;20161;-66
2021/07/12 13:43:13;;;;;;;5.63;4.50;;;;;;;;;;3583474;40;20033;-66
2021/07/12 13:45:39;;;;;;;24.85;14.70;;;;;;;;;;3582061;40;20039;-66
2021/07/12 13:48:05;;;;;;;5.10;2.85;;;;;;;;;;3581917;40;20037;-66
2021/07/12 13:50:31;;;;;;;5.35;2.47;;;;;;;;;;3581317;40;20041;-65
2021/07/12 13:52:58;;;;;;;4.95;2.42;;;;;;;;;;3573889;40;20032;-65
2021/07/12 13:55:26;;;;;;;4.85;2.50;;;;;;;;;;3583384;40;20035;-65
2021/07/12 13:57:55;;;;;;;3.28;2.40;;;;;;;;;;3583410;40;20365;-62
2021/07/12 14:00:24;;;;;;;3.58;2.60;;;;;;;;;;3584121;40;20122;-66
2021/07/12 14:02:50;;;;;;;4.00;2.63;;;;;;;;;;3584774;40;20379;-66
2021/07/12 14:05:17;;;;;;;4.47;2.78;;;;;;;;;;3585588;40;20076;-65
2021/07/12 14:07:43;;;;;;;4.35;2.47;;;;;;;;;;3583788;40;20033;-66
2021/07/12 14:10:11;;;;;;;8.07;2.85;;;;;;;;;;3586004;40;20036;-66
2021/07/12 14:12:41;;;;;;;4.60;2.58;;;;;;;;;;3584572;40;20047;-66
2021/07/12 14:15:12;;;;;;;3.30;2.30;;;;;;;;;;3585425;40;20052;-66
2021/07/12 14:17:38;;;;;;;6.07;2.30;;;;;;;;;;3585192;40;20032;-65
2021/07/12 14:20:05;;;;;;;4.55;2.70;;;;;;;;;;3583038;40;20056;-65
2021/07/12 14:22:31;;;;;;;3.75;2.22;;;;;;;;;;3574343;40;20054;-66
2021/07/12 14:24:57;;;;;;;3.38;2.20;;;;;;;;;;3584688;40;20037;-66
2021/07/12 14:27:22;;;;;;;4.28;2.40;;;;;;;;;;3584905;40;20107;-65
2021/07/12 14:29:48;;;;;;;5.97;2.22;;;;;;;;;;3575910;40;20036;-66
2021/07/12 14:32:14;;;;;;;4.45;2.53;;;;;;;;;;3584037;40;20061;-65
2021/07/12 14:34:42;;;;;;;3.75;2.42;;;;;;;;;;3582298;40;20032;-65
2021/07/12 14:37:08;;;;;;;4.72;2.25;;;;;;;;;;3583482;40;20065;-65
2021/07/12 14:39:34;;;;;;;3.08;2.15;;;;;;;;;;3584347;40;20047;-65
2021/07/12 14:42:01;;;;;;;4.70;2.67;;;;;;;;;;3583374;40;20049;-65
2021/07/12 14:44:27;;;;;;;12.20;2.22;;;;;;;;;;3585262;40;20041;-65
2021/07/12 14:46:53;;;;;;;3.20;2.22;;;;;;;;;;3582978;40;20137;-66